sensor_id;sensor_type;location;lat;lon;timestamp;temperature;humidity
39401;SHT31;75540;50.000;7.360;2024-03-25T00:01:12;3.52;83.89
39401;SHT31;75540;50.000;7.360;2024-03-25T00:03:38;3.48;84.19
39401;SHT31;75540;50.000;7.360;2024-03-25T00:06:06;3.46;84.80
39401;SHT31;75540;50.000;7.360;2024-03-25T00:08:32;3.48;84.84
39401;SHT31;75540;50.000;7.360;2024-03-25T00:10:59;3.48;84.85
39401;SHT31;75540;50.000;7.360;2024-03-25T00:13:26;3.42;84.78
39401;SHT31;75540;50.000;7.360;2024-03-25T00:15:53;3.40;84.09
39401;SHT31;75540;50.000;7.360;2024-03-25T00:18:21;3.44;84.36
39401;SHT31;75540;50.000;7.360;2024-03-25T00:20:48;3.42;84.59
39401;SHT31;75540;50.000;7.360;2024-03-25T00:23:14;3.35;85.26
39401;SHT31;75540;50.000;7.360;2024-03-25T00:25:41;3.39;85.60
39401;SHT31;75540;50.000;7.360;2024-03-25T00:28:08;3.35;85.32
39401;SHT31;75540;50.000;7.360;2024-03-25T00:30:35;3.36;85.41
39401;SHT31;75540;50.000;7.360;2024-03-25T00:33:01;3.38;85.33
39401;SHT31;75540;50.000;7.360;2024-03-25T00:35:30;3.33;85.25
39401;SHT31;75540;50.000;7.360;2024-03-25T00:37:56;3.30;85.56
39401;SHT31;75540;50.000;7.360;2024-03-25T00:40:24;3.29;85.82
39401;SHT31;75540;50.000;7.360;2024-03-25T00:42:50;3.25;86.00
39401;SHT31;75540;50.000;7.360;2024-03-25T00:45:17;3.29;85.81
39401;SHT31;75540;50.000;7.360;2024-03-25T00:47:44;3.33;85.37
39401;SHT31;75540;50.000;7.360;2024-03-25T00:50:11;3.30;85.29
39401;SHT31;75540;50.000;7.360;2024-03-25T00:52:39;3.33;85.55
39401;SHT31;75540;50.000;7.360;2024-03-25T00:55:07;3.33;84.94
39401;SHT31;75540;50.000;7.360;2024-03-25T00:57:34;3.33;84.81
39401;SHT31;75540;50.000;7.360;2024-03-25T01:00:01;3.35;84.79
39401;SHT31;75540;50.000;7.360;2024-03-25T01:02:28;3.33;84.81
39401;SHT31;75540;50.000;7.360;2024-03-25T01:04:55;3.29;84.40
39401;SHT31;75540;50.000;7.360;2024-03-25T01:07:22;3.23;84.72
39401;SHT31;75540;50.000;7.360;2024-03-25T01:09:51;3.19;84.91
39401;SHT31;75540;50.000;7.360;2024-03-25T01:12:17;3.19;85.40
39401;SHT31;75540;50.000;7.360;2024-03-25T01:14:44;3.15;85.56
39401;SHT31;75540;50.000;7.360;2024-03-25T01:17:10;3.12;85.79
39401;SHT31;75540;50.000;7.360;2024-03-25T01:19:38;3.05;86.12
39401;SHT31;75540;50.000;7.360;2024-03-25T01:22:04;2.99;86.39
39401;SHT31;75540;50.000;7.360;2024-03-25T01:24:31;2.94;86.53
39401;SHT31;75540;50.000;7.360;2024-03-25T01:26:59;2.91;86.87
39401;SHT31;75540;50.000;7.360;2024-03-25T01:29:27;2.92;86.93
39401;SHT31;75540;50.000;7.360;2024-03-25T01:31:53;2.85;87.03
39401;SHT31;75540;50.000;7.360;2024-03-25T01:34:20;2.80;87.15
39401;SHT31;75540;50.000;7.360;2024-03-25T01:36:46;2.77;87.34
39401;SHT31;75540;50.000;7.360;2024-03-25T01:39:14;2.73;87.61
39401;SHT31;75540;50.000;7.360;2024-03-25T01:41:40;2.67;87.98
39401;SHT31;75540;50.000;7.360;2024-03-25T01:44:09;2.67;87.99
39401;SHT31;75540;50.000;7.360;2024-03-25T01:46:35;2.62;88.17
39401;SHT31;75540;50.000;7.360;2024-03-25T01:49:03;2.62;88.12
39401;SHT31;75540;50.000;7.360;2024-03-25T01:51:30;2.60;88.09
39401;SHT31;75540;50.000;7.360;2024-03-25T01:53:58;2.57;88.16
39401;SHT31;75540;50.000;7.360;2024-03-25T01:56:25;2.57;87.95
39401;SHT31;75540;50.000;7.360;2024-03-25T01:58:53;2.61;87.87
39401;SHT31;75540;50.000;7.360;2024-03-25T02:01:22;2.60;87.91
39401;SHT31;75540;50.000;7.360;2024-03-25T02:03:49;2.60;87.79
39401;SHT31;75540;50.000;7.360;2024-03-25T02:06:17;2.61;87.75
39401;SHT31;75540;50.000;7.360;2024-03-25T02:08:44;2.61;87.87
39401;SHT31;75540;50.000;7.360;2024-03-25T02:11:11;2.60;87.80
39401;SHT31;75540;50.000;7.360;2024-03-25T02:13:39;2.60;87.90
39401;SHT31;75540;50.000;7.360;2024-03-25T02:16:06;2.50;87.82
39401;SHT31;75540;50.000;7.360;2024-03-25T02:18:35;2.50;88.09
39401;SHT31;75540;50.000;7.360;2024-03-25T02:21:01;2.50;88.08
39401;SHT31;75540;50.000;7.360;2024-03-25T02:23:29;2.51;88.08
39401;SHT31;75540;50.000;7.360;2024-03-25T02:25:56;2.51;88.24
39401;SHT31;75540;50.000;7.360;2024-03-25T02:28:26;2.44;88.51
39401;SHT31;75540;50.000;7.360;2024-03-25T02:30:52;2.41;88.54
39401;SHT31;75540;50.000;7.360;2024-03-25T02:33:19;2.40;88.64
39401;SHT31;75540;50.000;7.360;2024-03-25T02:35:45;2.38;88.66
39401;SHT31;75540;50.000;7.360;2024-03-25T02:38:13;2.36;88.73
39401;SHT31;75540;50.000;7.360;2024-03-25T02:40:41;2.29;88.95
39401;SHT31;75540;50.000;7.360;2024-03-25T02:43:10;2.30;88.91
39401;SHT31;75540;50.000;7.360;2024-03-25T02:45:36;2.27;88.84
39401;SHT31;75540;50.000;7.360;2024-03-25T02:48:04;2.24;88.96
39401;SHT31;75540;50.000;7.360;2024-03-25T02:50:31;2.23;89.00
39401;SHT31;75540;50.000;7.360;2024-03-25T02:52:58;2.23;89.04
39401;SHT31;75540;50.000;7.360;2024-03-25T02:55:24;2.22;89.08
39401;SHT31;75540;50.000;7.360;2024-03-25T02:57:52;2.14;89.24
39401;SHT31;75540;50.000;7.360;2024-03-25T03:00:19;2.17;89.08
39401;SHT31;75540;50.000;7.360;2024-03-25T03:02:46;2.16;89.16
39401;SHT31;75540;50.000;7.360;2024-03-25T03:05:13;2.17;89.07
39401;SHT31;75540;50.000;7.360;2024-03-25T03:07:40;2.13;89.10
39401;SHT31;75540;50.000;7.360;2024-03-25T03:10:07;2.06;89.03
39401;SHT31;75540;50.000;7.360;2024-03-25T03:12:35;2.06;89.28
39401;SHT31;75540;50.000;7.360;2024-03-25T03:15:01;2.00;89.47
39401;SHT31;75540;50.000;7.360;2024-03-25T03:17:30;2.02;89.48
39401;SHT31;75540;50.000;7.360;2024-03-25T03:19:56;1.93;89.81
39401;SHT31;75540;50.000;7.360;2024-03-25T03:22:23;1.85;89.95
39401;SHT31;75540;50.000;7.360;2024-03-25T03:24:49;1.89;90.06
39401;SHT31;75540;50.000;7.360;2024-03-25T03:27:17;1.89;90.10
39401;SHT31;75540;50.000;7.360;2024-03-25T03:29:43;1.86;90.17
39401;SHT31;75540;50.000;7.360;2024-03-25T03:32:11;1.85;90.26
39401;SHT31;75540;50.000;7.360;2024-03-25T03:34:38;1.83;90.22
39401;SHT31;75540;50.000;7.360;2024-03-25T03:37:05;1.82;90.37
39401;SHT31;75540;50.000;7.360;2024-03-25T03:39:32;1.79;90.37
39401;SHT31;75540;50.000;7.360;2024-03-25T03:41:59;1.80;90.37
39401;SHT31;75540;50.000;7.360;2024-03-25T03:44:25;1.80;90.33
39401;SHT31;75540;50.000;7.360;2024-03-25T03:46:53;1.76;90.46
39401;SHT31;75540;50.000;7.360;2024-03-25T03:49:19;1.75;90.40
39401;SHT31;75540;50.000;7.360;2024-03-25T03:51:48;1.75;90.50
39401;SHT31;75540;50.000;7.360;2024-03-25T03:54:14;1.70;90.59
39401;SHT31;75540;50.000;7.360;2024-03-25T03:56:41;1.72;90.69
39401;SHT31;75540;50.000;7.360;2024-03-25T03:59:07;1.69;90.70
39401;SHT31;75540;50.000;7.360;2024-03-25T04:01:34;1.68;90.80
39401;SHT31;75540;50.000;7.360;2024-03-25T04:04:01;1.62;90.94
39401;SHT31;75540;50.000;7.360;2024-03-25T04:06:28;1.62;90.97
39401;SHT31;75540;50.000;7.360;2024-03-25T04:08:56;1.60;91.13
39401;SHT31;75540;50.000;7.360;2024-03-25T04:11:23;1.59;91.20
39401;SHT31;75540;50.000;7.360;2024-03-25T04:13:49;1.59;91.23
39401;SHT31;75540;50.000;7.360;2024-03-25T04:16:16;1.56;91.19
39401;SHT31;75540;50.000;7.360;2024-03-25T04:18:43;1.51;91.19
39401;SHT31;75540;50.000;7.360;2024-03-25T04:21:13;1.52;91.12
39401;SHT31;75540;50.000;7.360;2024-03-25T04:23:39;1.48;91.10
39401;SHT31;75540;50.000;7.360;2024-03-25T04:26:08;1.42;91.25
39401;SHT31;75540;50.000;7.360;2024-03-25T04:28:34;1.44;91.31
39401;SHT31;75540;50.000;7.360;2024-03-25T04:31:02;1.39;91.46
39401;SHT31;75540;50.000;7.360;2024-03-25T04:33:28;1.42;91.45
39401;SHT31;75540;50.000;7.360;2024-03-25T04:35:56;1.41;91.53
39401;SHT31;75540;50.000;7.360;2024-03-25T04:38:22;1.39;91.64
39401;SHT31;75540;50.000;7.360;2024-03-25T04:40:48;1.38;91.70
39401;SHT31;75540;50.000;7.360;2024-03-25T04:43:16;1.38;91.78
39401;SHT31;75540;50.000;7.360;2024-03-25T04:45:43;1.39;91.75
39401;SHT31;75540;50.000;7.360;2024-03-25T04:48:09;1.41;91.81
39401;SHT31;75540;50.000;7.360;2024-03-25T04:50:35;1.38;91.86
39401;SHT31;75540;50.000;7.360;2024-03-25T04:53:02;1.37;91.75
39401;SHT31;75540;50.000;7.360;2024-03-25T04:55:28;1.37;91.74
39401;SHT31;75540;50.000;7.360;2024-03-25T04:57:54;1.30;91.71
39401;SHT31;75540;50.000;7.360;2024-03-25T05:00:22;1.28;91.67
39401;SHT31;75540;50.000;7.360;2024-03-25T05:02:48;1.17;91.77
39401;SHT31;75540;50.000;7.360;2024-03-25T05:05:15;1.11;91.77
39401;SHT31;75540;50.000;7.360;2024-03-25T05:07:41;1.11;91.85
39401;SHT31;75540;50.000;7.360;2024-03-25T05:10:07;1.18;92.07
39401;SHT31;75540;50.000;7.360;2024-03-25T05:12:33;1.25;91.78
39401;SHT31;75540;50.000;7.360;2024-03-25T05:15:00;1.30;91.81
39401;SHT31;75540;50.000;7.360;2024-03-25T05:17:27;1.34;91.83
39401;SHT31;75540;50.000;7.360;2024-03-25T05:19:54;1.37;91.86
39401;SHT31;75540;50.000;7.360;2024-03-25T05:22:20;1.38;91.91
39401;SHT31;75540;50.000;7.360;2024-03-25T05:24:46;1.39;92.02
39401;SHT31;75540;50.000;7.360;2024-03-25T05:27:14;1.35;92.12
39401;SHT31;75540;50.000;7.360;2024-03-25T05:29:41;1.41;92.10
39401;SHT31;75540;50.000;7.360;2024-03-25T05:32:07;1.45;92.13
39401;SHT31;75540;50.000;7.360;2024-03-25T05:34:35;1.49;92.15
39401;SHT31;75540;50.000;7.360;2024-03-25T05:37:01;1.51;92.10
39401;SHT31;75540;50.000;7.360;2024-03-25T05:39:27;1.49;92.01
39401;SHT31;75540;50.000;7.360;2024-03-25T05:41:53;1.54;91.85
39401;SHT31;75540;50.000;7.360;2024-03-25T05:44:20;1.55;91.82
39401;SHT31;75540;50.000;7.360;2024-03-25T05:46:46;1.49;91.94
39401;SHT31;75540;50.000;7.360;2024-03-25T05:49:12;1.56;91.77
39401;SHT31;75540;50.000;7.360;2024-03-25T05:51:40;1.58;91.73
39401;SHT31;75540;50.000;7.360;2024-03-25T05:54:06;1.54;91.62
39401;SHT31;75540;50.000;7.360;2024-03-25T05:56:33;1.55;91.60
39401;SHT31;75540;50.000;7.360;2024-03-25T05:59:00;1.45;91.36
39401;SHT31;75540;50.000;7.360;2024-03-25T06:01:26;1.35;91.15
39401;SHT31;75540;50.000;7.360;2024-03-25T06:03:53;1.28;91.25
39401;SHT31;75540;50.000;7.360;2024-03-25T06:06:19;1.20;91.02
39401;SHT31;75540;50.000;7.360;2024-03-25T06:08:47;1.17;91.78
39401;SHT31;75540;50.000;7.360;2024-03-25T06:11:13;1.32;91.38
39401;SHT31;75540;50.000;7.360;2024-03-25T06:13:40;1.23;91.50
39401;SHT31;75540;50.000;7.360;2024-03-25T06:16:06;1.35;91.45
39401;SHT31;75540;50.000;7.360;2024-03-25T06:18:32;1.39;91.44
39401;SHT31;75540;50.000;7.360;2024-03-25T06:20:59;1.48;91.13
39401;SHT31;75540;50.000;7.360;2024-03-25T06:23:26;1.52;91.11
39401;SHT31;75540;50.000;7.360;2024-03-25T06:25:55;1.65;91.06
39401;SHT31;75540;50.000;7.360;2024-03-25T06:28:22;1.75;90.90
39401;SHT31;75540;50.000;7.360;2024-03-25T06:30:49;1.82;90.39
39401;SHT31;75540;50.000;7.360;2024-03-25T06:33:34;2.23;89.83
39401;SHT31;75540;50.000;7.360;2024-03-25T06:36:20;3.01;88.16
39401;SHT31;75540;50.000;7.360;2024-03-25T06:38:46;4.22;85.20
39401;SHT31;75540;50.000;7.360;2024-03-25T06:41:14;5.01;81.53
39401;SHT31;75540;50.000;7.360;2024-03-25T06:43:40;5.61;78.82
39401;SHT31;75540;50.000;7.360;2024-03-25T06:46:07;6.35;76.03
39401;SHT31;75540;50.000;7.360;2024-03-25T06:48:34;6.96;73.72
39401;SHT31;75540;50.000;7.360;2024-03-25T06:51:00;6.98;71.35
39401;SHT31;75540;50.000;7.360;2024-03-25T06:53:27;7.48;70.75
39401;SHT31;75540;50.000;7.360;2024-03-25T06:55:54;7.07;70.35
39401;SHT31;75540;50.000;7.360;2024-03-25T06:58:23;7.66;70.85
39401;SHT31;75540;50.000;7.360;2024-03-25T07:00:50;7.79;68.02
39401;SHT31;75540;50.000;7.360;2024-03-25T07:03:17;8.20;68.02
39401;SHT31;75540;50.000;7.360;2024-03-25T07:05:44;8.71;66.39
39401;SHT31;75540;50.000;7.360;2024-03-25T07:08:11;8.61;67.00
39401;SHT31;75540;50.000;7.360;2024-03-25T07:10:38;8.72;65.59
39401;SHT31;75540;50.000;7.360;2024-03-25T07:13:04;8.67;67.05
39401;SHT31;75540;50.000;7.360;2024-03-25T07:15:32;7.89;68.25
39401;SHT31;75540;50.000;7.360;2024-03-25T07:17:59;8.24;67.92
39401;SHT31;75540;50.000;7.360;2024-03-25T07:20:25;8.84;65.91
39401;SHT31;75540;50.000;7.360;2024-03-25T07:22:51;8.17;67.68
39401;SHT31;75540;50.000;7.360;2024-03-25T07:25:18;8.02;68.62
39401;SHT31;75540;50.000;7.360;2024-03-25T07:27:45;8.07;69.18
39401;SHT31;75540;50.000;7.360;2024-03-25T07:30:11;8.14;68.91
39401;SHT31;75540;50.000;7.360;2024-03-25T07:32:39;8.60;67.68
39401;SHT31;75540;50.000;7.360;2024-03-25T07:35:06;8.09;68.46
39401;SHT31;75540;50.000;7.360;2024-03-25T07:37:32;8.45;68.22
39401;SHT31;75540;50.000;7.360;2024-03-25T07:39:58;9.29;65.02
39401;SHT31;75540;50.000;7.360;2024-03-25T07:42:25;9.40;64.15
39401;SHT31;75540;50.000;7.360;2024-03-25T07:44:51;9.80;62.59
39401;SHT31;75540;50.000;7.360;2024-03-25T07:47:17;10.17;62.05
39401;SHT31;75540;50.000;7.360;2024-03-25T07:49:45;10.64;60.47
39401;SHT31;75540;50.000;7.360;2024-03-25T07:52:11;9.95;61.17
39401;SHT31;75540;50.000;7.360;2024-03-25T07:54:38;10.45;60.27
39401;SHT31;75540;50.000;7.360;2024-03-25T07:57:04;10.80;58.88
39401;SHT31;75540;50.000;7.360;2024-03-25T07:59:30;10.73;59.30
39401;SHT31;75540;50.000;7.360;2024-03-25T08:01:57;10.66;58.78
39401;SHT31;75540;50.000;7.360;2024-03-25T08:04:23;10.97;59.52
39401;SHT31;75540;50.000;7.360;2024-03-25T08:06:51;10.86;60.40
39401;SHT31;75540;50.000;7.360;2024-03-25T08:09:17;10.11;62.51
39401;SHT31;75540;50.000;7.360;2024-03-25T08:11:43;9.90;63.45
39401;SHT31;75540;50.000;7.360;2024-03-25T08:14:10;10.00;63.56
39401;SHT31;75540;50.000;7.360;2024-03-25T08:16:36;10.14;63.46
39401;SHT31;75540;50.000;7.360;2024-03-25T08:19:03;9.54;64.77
39401;SHT31;75540;50.000;7.360;2024-03-25T08:21:29;9.22;64.88
39401;SHT31;75540;50.000;7.360;2024-03-25T08:23:56;9.44;64.94
39401;SHT31;75540;50.000;7.360;2024-03-25T08:26:23;9.52;64.82
39401;SHT31;75540;50.000;7.360;2024-03-25T08:28:50;9.83;63.90
39401;SHT31;75540;50.000;7.360;2024-03-25T08:31:16;10.18;63.17
39401;SHT31;75540;50.000;7.360;2024-03-25T08:33:43;10.73;61.19
39401;SHT31;75540;50.000;7.360;2024-03-25T08:36:09;10.31;62.20
39401;SHT31;75540;50.000;7.360;2024-03-25T08:38:35;9.93;61.24
39401;SHT31;75540;50.000;7.360;2024-03-25T08:41:03;9.94;61.40
39401;SHT31;75540;50.000;7.360;2024-03-25T08:43:30;10.10;61.26
39401;SHT31;75540;50.000;7.360;2024-03-25T08:45:56;9.29;62.63
39401;SHT31;75540;50.000;7.360;2024-03-25T08:48:22;9.64;63.64
39401;SHT31;75540;50.000;7.360;2024-03-25T08:50:49;9.35;63.37
39401;SHT31;75540;50.000;7.360;2024-03-25T08:53:15;9.79;57.29
39401;SHT31;75540;50.000;7.360;2024-03-25T08:55:45;10.04;57.10
39401;SHT31;75540;50.000;7.360;2024-03-25T08:58:13;10.45;55.89
39401;SHT31;75540;50.000;7.360;2024-03-25T09:00:40;10.55;56.22
39401;SHT31;75540;50.000;7.360;2024-03-25T09:03:07;10.62;54.94
39401;SHT31;75540;50.000;7.360;2024-03-25T09:05:33;11.34;55.19
39401;SHT31;75540;50.000;7.360;2024-03-25T09:07:59;10.46;55.18
39401;SHT31;75540;50.000;7.360;2024-03-25T09:10:26;10.61;54.89
39401;SHT31;75540;50.000;7.360;2024-03-25T09:13:12;10.83;55.61
39401;SHT31;75540;50.000;7.360;2024-03-25T09:15:39;10.99;55.52
39401;SHT31;75540;50.000;7.360;2024-03-25T09:18:05;10.40;54.29
39401;SHT31;75540;50.000;7.360;2024-03-25T09:20:31;10.33;53.73
39401;SHT31;75540;50.000;7.360;2024-03-25T09:22:58;9.73;55.97
39401;SHT31;75540;50.000;7.360;2024-03-25T09:25:24;9.50;58.01
39401;SHT31;75540;50.000;7.360;2024-03-25T09:27:51;9.12;57.88
39401;SHT31;75540;50.000;7.360;2024-03-25T09:30:18;9.36;58.12
39401;SHT31;75540;50.000;7.360;2024-03-25T09:32:45;8.85;57.53
39401;SHT31;75540;50.000;7.360;2024-03-25T09:35:12;8.50;58.37
39401;SHT31;75540;50.000;7.360;2024-03-25T09:37:38;8.63;56.78
39401;SHT31;75540;50.000;7.360;2024-03-25T09:40:05;8.47;58.27
39401;SHT31;75540;50.000;7.360;2024-03-25T09:42:34;8.71;58.14
39401;SHT31;75540;50.000;7.360;2024-03-25T09:45:02;8.91;60.92
39401;SHT31;75540;50.000;7.360;2024-03-25T09:47:32;8.79;57.79
39401;SHT31;75540;50.000;7.360;2024-03-25T09:49:59;9.30;57.01
39401;SHT31;75540;50.000;7.360;2024-03-25T09:52:27;9.56;55.88
39401;SHT31;75540;50.000;7.360;2024-03-25T09:54:53;9.40;54.56
39401;SHT31;75540;50.000;7.360;2024-03-25T09:57:20;9.79;55.38
39401;SHT31;75540;50.000;7.360;2024-03-25T09:59:47;10.45;55.08
39401;SHT31;75540;50.000;7.360;2024-03-25T10:02:17;10.80;52.29
39401;SHT31;75540;50.000;7.360;2024-03-25T10:04:48;11.22;48.76
39401;SHT31;75540;50.000;7.360;2024-03-25T10:07:21;9.91;50.29
39401;SHT31;75540;50.000;7.360;2024-03-25T10:09:48;10.21;54.04
39401;SHT31;75540;50.000;7.360;2024-03-25T10:12:14;9.73;53.64
39401;SHT31;75540;50.000;7.360;2024-03-25T10:14:41;9.63;52.86
39401;SHT31;75540;50.000;7.360;2024-03-25T10:17:07;9.53;53.89
39401;SHT31;75540;50.000;7.360;2024-03-25T10:19:34;9.39;51.57
39401;SHT31;75540;50.000;7.360;2024-03-25T10:22:06;9.26;52.89
39401;SHT31;75540;50.000;7.360;2024-03-25T10:24:39;9.12;54.04
39401;SHT31;75540;50.000;7.360;2024-03-25T10:27:09;9.01;54.90
39401;SHT31;75540;50.000;7.360;2024-03-25T10:29:35;8.92;54.57
39401;SHT31;75540;50.000;7.360;2024-03-25T10:32:02;9.19;53.54
39401;SHT31;75540;50.000;7.360;2024-03-25T10:34:28;10.37;51.92
39401;SHT31;75540;50.000;7.360;2024-03-25T10:36:57;11.09;46.94
39401;SHT31;75540;50.000;7.360;2024-03-25T10:39:27;11.50;48.30
39401;SHT31;75540;50.000;7.360;2024-03-25T10:41:56;11.70;46.52
39401;SHT31;75540;50.000;7.360;2024-03-25T10:44:23;11.92;45.70
39401;SHT31;75540;50.000;7.360;2024-03-25T10:47:03;12.35;45.85
39401;SHT31;75540;50.000;7.360;2024-03-25T10:49:38;11.71;45.51
39401;SHT31;75540;50.000;7.360;2024-03-25T10:52:11;11.71;46.56
39401;SHT31;75540;50.000;7.360;2024-03-25T10:54:41;11.30;47.32
39401;SHT31;75540;50.000;7.360;2024-03-25T10:57:09;10.75;47.75
39401;SHT31;75540;50.000;7.360;2024-03-25T10:59:37;10.22;49.25
39401;SHT31;75540;50.000;7.360;2024-03-25T11:02:04;10.10;49.93
39401;SHT31;75540;50.000;7.360;2024-03-25T11:04:31;10.11;50.37
39401;SHT31;75540;50.000;7.360;2024-03-25T11:07:09;9.93;49.53
39401;SHT31;75540;50.000;7.360;2024-03-25T11:09:36;9.90;49.43
39401;SHT31;75540;50.000;7.360;2024-03-25T11:12:04;9.59;50.03
39401;SHT31;75540;50.000;7.360;2024-03-25T11:14:31;9.05;50.59
39401;SHT31;75540;50.000;7.360;2024-03-25T11:16:58;9.39;52.31
39401;SHT31;75540;50.000;7.360;2024-03-25T11:19:26;9.59;51.69
39401;SHT31;75540;50.000;7.360;2024-03-25T11:21:53;9.61;50.10
39401;SHT31;75540;50.000;7.360;2024-03-25T11:24:27;9.40;50.97
39401;SHT31;75540;50.000;7.360;2024-03-25T11:26:53;9.64;50.99
39401;SHT31;75540;50.000;7.360;2024-03-25T11:29:21;8.82;52.35
39401;SHT31;75540;50.000;7.360;2024-03-25T11:31:49;9.20;51.44
39401;SHT31;75540;50.000;7.360;2024-03-25T11:34:18;9.07;51.03
39401;SHT31;75540;50.000;7.360;2024-03-25T11:36:45;9.02;52.11
39401;SHT31;75540;50.000;7.360;2024-03-25T11:39:11;9.22;53.06
39401;SHT31;75540;50.000;7.360;2024-03-25T11:41:39;9.26;53.95
39401;SHT31;75540;50.000;7.360;2024-03-25T11:44:06;9.05;53.84
39401;SHT31;75540;50.000;7.360;2024-03-25T11:46:36;9.33;54.41
39401;SHT31;75540;50.000;7.360;2024-03-25T11:49:04;9.08;55.17
39401;SHT31;75540;50.000;7.360;2024-03-25T11:51:31;9.30;51.82
39401;SHT31;75540;50.000;7.360;2024-03-25T11:53:59;9.53;53.87
39401;SHT31;75540;50.000;7.360;2024-03-25T11:56:25;9.40;54.46
39401;SHT31;75540;50.000;7.360;2024-03-25T11:58:51;9.35;53.82
39401;SHT31;75540;50.000;7.360;2024-03-25T12:01:18;9.44;52.17
39401;SHT31;75540;50.000;7.360;2024-03-25T12:03:45;9.47;51.83
39401;SHT31;75540;50.000;7.360;2024-03-25T12:06:11;8.95;54.35
39401;SHT31;75540;50.000;7.360;2024-03-25T12:08:38;8.98;54.30
39401;SHT31;75540;50.000;7.360;2024-03-25T12:11:04;9.67;54.08
39401;SHT31;75540;50.000;7.360;2024-03-25T12:13:46;10.42;54.06
39401;SHT31;75540;50.000;7.360;2024-03-25T12:16:12;10.13;51.56
39401;SHT31;75540;50.000;7.360;2024-03-25T12:18:40;10.13;53.25
39401;SHT31;75540;50.000;7.360;2024-03-25T12:21:10;10.31;54.01
39401;SHT31;75540;50.000;7.360;2024-03-25T12:23:36;10.08;52.64
39401;SHT31;75540;50.000;7.360;2024-03-25T12:26:04;9.73;51.79
39401;SHT31;75540;50.000;7.360;2024-03-25T12:28:31;10.07;52.76
39401;SHT31;75540;50.000;7.360;2024-03-25T12:30:57;9.87;52.16
39401;SHT31;75540;50.000;7.360;2024-03-25T12:33:24;9.66;51.37
39401;SHT31;75540;50.000;7.360;2024-03-25T12:35:51;9.79;50.76
39401;SHT31;75540;50.000;7.360;2024-03-25T12:38:26;9.81;47.21
39401;SHT31;75540;50.000;7.360;2024-03-25T12:40:53;9.73;46.81
39401;SHT31;75540;50.000;7.360;2024-03-25T12:43:20;9.76;47.94
39401;SHT31;75540;50.000;7.360;2024-03-25T12:45:46;9.61;48.12
39401;SHT31;75540;50.000;7.360;2024-03-25T12:48:12;10.13;46.35
39401;SHT31;75540;50.000;7.360;2024-03-25T12:50:39;10.14;46.39
39401;SHT31;75540;50.000;7.360;2024-03-25T12:53:05;10.20;43.45
39401;SHT31;75540;50.000;7.360;2024-03-25T12:55:33;10.14;47.49
39401;SHT31;75540;50.000;7.360;2024-03-25T12:57:59;9.81;46.47
39401;SHT31;75540;50.000;7.360;2024-03-25T13:00:25;10.22;46.56
39401;SHT31;75540;50.000;7.360;2024-03-25T13:02:51;10.28;48.89
39401;SHT31;75540;50.000;7.360;2024-03-25T13:05:18;10.04;48.60
39401;SHT31;75540;50.000;7.360;2024-03-25T13:07:44;10.28;48.51
39401;SHT31;75540;50.000;7.360;2024-03-25T13:10:10;10.49;48.39
39401;SHT31;75540;50.000;7.360;2024-03-25T13:12:38;10.24;50.10
39401;SHT31;75540;50.000;7.360;2024-03-25T13:15:05;10.20;50.78
39401;SHT31;75540;50.000;7.360;2024-03-25T13:17:31;9.95;51.06
39401;SHT31;75540;50.000;7.360;2024-03-25T13:19:57;9.49;50.71
39401;SHT31;75540;50.000;7.360;2024-03-25T13:22:24;9.19;52.65
39401;SHT31;75540;50.000;7.360;2024-03-25T13:24:50;9.23;51.66
39401;SHT31;75540;50.000;7.360;2024-03-25T13:27:17;9.19;51.56
39401;SHT31;75540;50.000;7.360;2024-03-25T13:29:44;9.12;50.63
39401;SHT31;75540;50.000;7.360;2024-03-25T13:32:11;9.07;52.44
39401;SHT31;75540;50.000;7.360;2024-03-25T13:34:37;9.36;51.06
39401;SHT31;75540;50.000;7.360;2024-03-25T13:37:03;9.87;50.66
39401;SHT31;75540;50.000;7.360;2024-03-25T13:39:30;9.61;53.68
39401;SHT31;75540;50.000;7.360;2024-03-25T13:41:56;9.33;52.25
39401;SHT31;75540;50.000;7.360;2024-03-25T13:44:22;8.93;53.33
39401;SHT31;75540;50.000;7.360;2024-03-25T13:46:50;9.23;52.69
39401;SHT31;75540;50.000;7.360;2024-03-25T13:49:16;9.30;53.56
39401;SHT31;75540;50.000;7.360;2024-03-25T13:51:43;9.53;52.64
39401;SHT31;75540;50.000;7.360;2024-03-25T13:54:09;9.91;51.06
39401;SHT31;75540;50.000;7.360;2024-03-25T13:56:35;10.11;51.38
39401;SHT31;75540;50.000;7.360;2024-03-25T13:59:01;10.25;50.63
39401;SHT31;75540;50.000;7.360;2024-03-25T14:01:27;10.15;48.23
39401;SHT31;75540;50.000;7.360;2024-03-25T14:03:55;10.18;49.13
39401;SHT31;75540;50.000;7.360;2024-03-25T14:06:21;9.89;49.62
39401;SHT31;75540;50.000;7.360;2024-03-25T14:08:47;9.52;51.68
39401;SHT31;75540;50.000;7.360;2024-03-25T14:11:14;9.52;50.55
39401;SHT31;75540;50.000;7.360;2024-03-25T14:13:40;9.66;50.61
39401;SHT31;75540;50.000;7.360;2024-03-25T14:16:06;9.60;49.29
39401;SHT31;75540;50.000;7.360;2024-03-25T14:18:32;9.35;50.23
39401;SHT31;75540;50.000;7.360;2024-03-25T14:21:00;9.38;51.44
39401;SHT31;75540;50.000;7.360;2024-03-25T14:23:27;9.43;50.59
39401;SHT31;75540;50.000;7.360;2024-03-25T14:25:53;9.71;50.68
39401;SHT31;75540;50.000;7.360;2024-03-25T14:28:20;9.49;50.33
39401;SHT31;75540;50.000;7.360;2024-03-25T14:30:46;9.52;52.38
39401;SHT31;75540;50.000;7.360;2024-03-25T14:33:12;9.64;52.19
39401;SHT31;75540;50.000;7.360;2024-03-25T14:35:38;9.74;51.22
39401;SHT31;75540;50.000;7.360;2024-03-25T14:38:06;9.40;51.36
39401;SHT31;75540;50.000;7.360;2024-03-25T14:40:37;9.69;52.57
39401;SHT31;75540;50.000;7.360;2024-03-25T14:43:03;9.30;51.09
39401;SHT31;75540;50.000;7.360;2024-03-25T14:45:29;9.46;49.53
39401;SHT31;75540;50.000;7.360;2024-03-25T14:47:56;9.38;49.10
39401;SHT31;75540;50.000;7.360;2024-03-25T14:50:22;9.50;46.60
39401;SHT31;75540;50.000;7.360;2024-03-25T14:52:48;9.66;49.79
39401;SHT31;75540;50.000;7.360;2024-03-25T14:55:16;9.71;47.97
39401;SHT31;75540;50.000;7.360;2024-03-25T14:57:42;9.81;45.98
39401;SHT31;75540;50.000;7.360;2024-03-25T15:00:09;9.80;45.74
39401;SHT31;75540;50.000;7.360;2024-03-25T15:02:36;9.76;48.40
39401;SHT31;75540;50.000;7.360;2024-03-25T15:05:02;9.53;45.33
39401;SHT31;75540;50.000;7.360;2024-03-25T15:07:29;9.52;46.07
39401;SHT31;75540;50.000;7.360;2024-03-25T15:09:55;9.70;44.72
39401;SHT31;75540;50.000;7.360;2024-03-25T15:12:23;9.69;44.07
39401;SHT31;75540;50.000;7.360;2024-03-25T15:14:49;9.39;44.35
39401;SHT31;75540;50.000;7.360;2024-03-25T15:17:15;9.52;44.17
39401;SHT31;75540;50.000;7.360;2024-03-25T15:19:42;9.52;47.59
39401;SHT31;75540;50.000;7.360;2024-03-25T15:22:08;9.36;47.38
39401;SHT31;75540;50.000;7.360;2024-03-25T15:24:35;9.49;47.56
39401;SHT31;75540;50.000;7.360;2024-03-25T15:27:01;9.35;48.58
39401;SHT31;75540;50.000;7.360;2024-03-25T15:29:29;9.29;49.71
39401;SHT31;75540;50.000;7.360;2024-03-25T15:31:55;9.43;50.93
39401;SHT31;75540;50.000;7.360;2024-03-25T15:34:21;9.33;50.01
39401;SHT31;75540;50.000;7.360;2024-03-25T15:36:48;9.29;48.91
39401;SHT31;75540;50.000;7.360;2024-03-25T15:39:14;9.23;47.97
39401;SHT31;75540;50.000;7.360;2024-03-25T15:41:40;9.01;49.58